Time;durP1;ratioP1;P1;durP2;ratioP2;P2;SDS_P1;SDS_P2;PMS_P1;PMS_P2;Temp;Humidity;BMP_temperature;BMP_pressure;BME280_temperature;BME280_humidity;BME280_pressure;Samples;Min_cycle;Max_cycle;Signal;HPM_P1;HPM_P2
2020/12/03 00:00:55;;;;;;;10.00;5.40;;;;;;;25.96;29.87;96040.06;4951086;28;20161;-42
2020/12/03 00:03:57;;;;;;;10.85;5.35;;;;;;;25.97;29.99;96038.25;4959197;28;20117;-40
2020/12/03 00:06:30;;;;;;;11.02;5.47;;;;;;;25.98;30.05;96029.47;4984728;28;20039;-39
2020/12/03 00:08:57;;;;;;;9.43;5.45;;;;;;;25.97;29.92;96027.75;4967512;28;20118;-40
2020/12/03 00:11:24;;;;;;;11.77;5.60;;;;;;;25.98;29.98;96028.63;4954513;28;20550;-42
2020/12/03 00:13:50;;;;;;;10.07;5.40;;;;;;;25.97;29.98;96017.25;4960154;28;20047;-40
2020/12/03 00:16:15;;;;;;;9.98;5.18;;;;;;;25.98;29.80;96016.34;4956194;28;20039;-42
2020/12/03 00:18:41;;;;;;;8.68;5.45;;;;;;;25.98;29.94;96013.72;4964008;28;20047;-39
2020/12/03 00:21:07;;;;;;;10.82;4.95;;;;;;;25.98;29.71;96020.75;4951145;28;20058;-42
2020/12/03 00:23:34;;;;;;;7.70;5.03;;;;;;;25.97;29.81;96017.25;4954724;28;20561;-40
2020/12/03 00:26:00;;;;;;;9.80;5.35;;;;;;;25.97;29.59;96017.25;4953609;28;20070;-40
2020/12/03 00:28:30;;;;;;;8.90;4.82;;;;;;;25.98;29.83;96021.59;4958182;28;20512;-39
2020/12/03 00:30:55;;;;;;;9.05;5.05;;;;;;;25.97;29.36;96012.00;4958527;28;20039;-39
2020/12/03 00:33:21;;;;;;;8.02;5.18;;;;;;;25.98;29.55;96011.09;4962582;28;20050;-39
2020/12/03 00:35:47;;;;;;;8.48;4.63;;;;;;;25.98;29.71;96010.25;4965304;28;20427;-40
2020/12/03 00:38:13;;;;;;;7.72;4.60;;;;;;;25.98;29.59;96011.09;4955002;28;20035;-40
2020/12/03 00:40:38;;;;;;;10.80;5.38;;;;;;;25.95;29.50;95998.16;4956730;28;20050;-43
2020/12/03 00:43:04;;;;;;;9.15;5.00;;;;;;;25.96;29.76;96000.69;4962294;28;20046;-38
2020/12/03 00:45:29;;;;;;;8.40;4.55;;;;;;;25.98;29.71;96003.22;4962545;28;20046;-41
2020/12/03 00:47:55;;;;;;;8.75;4.85;;;;;;;25.96;29.67;95994.59;4956363;28;20070;-38
2020/12/03 00:50:20;;;;;;;10.10;4.70;;;;;;;25.99;29.60;95999.66;4955325;28;20046;-41
2020/12/03 00:52:46;;;;;;;7.47;4.80;;;;;;;25.83;29.52;95968.31;4960790;28;20058;-38
2020/12/03 00:55:12;;;;;;;10.20;4.68;;;;;;;25.97;29.61;95991.00;4961791;28;20046;-37
2020/12/03 00:57:38;;;;;;;10.05;5.00;;;;;;;25.96;29.57;95990.19;4954945;28;20479;-38
2020/12/03 01:00:05;;;;;;;7.10;4.50;;;;;;;25.97;29.54;95985.75;4960673;28;20043;-38
2020/12/03 01:02:31;;;;;;;7.47;4.50;;;;;;;25.96;29.58;95978.84;4951337;28;20054;-39
2020/12/03 01:04:58;;;;;;;8.85;4.80;;;;;;;25.97;29.54;95985.75;4960538;28;20042;-41
2020/12/03 01:07:23;;;;;;;8.77;5.13;;;;;;;25.96;29.62;95986.72;4960074;28;20092;-40
2020/12/03 01:09:49;;;;;;;7.88;4.45;;;;;;;25.96;29.62;95984.09;4949747;28;20536;-41
2020/12/03 01:12:14;;;;;;;7.28;4.25;;;;;;;25.97;29.39;95975.25;4955525;28;20053;-37
2020/12/03 01:14:40;;;;;;;8.82;4.53;;;;;;;25.96;29.43;95982.31;4947088;28;20039;-40
2020/12/03 01:17:08;;;;;;;7.05;4.20;;;;;;;25.97;29.61;95983.13;4957537;28;20039;-40
2020/12/03 01:19:33;;;;;;;9.07;4.35;;;;;;;25.96;29.48;95974.44;4956967;28;20042;-39
2020/12/03 01:21:59;;;;;;;7.15;4.28;;;;;;;25.96;29.60;95973.59;4963344;28;20112;-39
2020/12/03 01:24:25;;;;;;;7.78;4.18;;;;;;;25.95;29.52;95977.16;4955942;28;20027;-38
2020/12/03 01:26:51;;;;;;;6.88;4.15;;;;;;;25.96;29.52;95970.97;4957153;28;20054;-37
2020/12/03 01:29:17;;;;;;;7.95;4.47;;;;;;;25.96;29.63;95968.34;4961048;28;20049;-38
2020/12/03 01:31:43;;;;;;;6.25;3.90;;;;;;;25.95;29.55;95961.41;4960396;28;20046;-38
2020/12/03 01:34:09;;;;;;;10.32;4.57;;;;;;;25.95;29.69;95956.16;4959385;28;20047;-41
2020/12/03 01:36:35;;;;;;;6.35;3.83;;;;;;;25.94;29.51;95951.88;4953120;28;20069;-36
2020/12/03 01:39:00;;;;;;;5.78;3.60;;;;;;;25.94;29.45;95951.88;4954064;28;20051;-38
2020/12/03 01:41:26;;;;;;;5.82;3.88;;;;;;;25.93;29.54;95953.63;4951970;28;20039;-41
2020/12/03 01:43:52;;;;;;;6.78;4.13;;;;;;;25.95;29.34;95940.41;4956752;28;20066;-39
2020/12/03 01:46:18;;;;;;;6.93;3.85;;;;;;;25.95;29.51;95950.91;4962529;28;20046;-40
2020/12/03 01:48:47;;;;;;;6.85;4.00;;;;;;;25.94;29.44;95941.38;4963867;28;20397;-36
2020/12/03 01:51:16;;;;;;;6.13;3.83;;;;;;;25.93;29.52;95937.06;4950490;28;20027;-40
2020/12/03 01:53:41;;;;;;;5.70;3.58;;;;;;;25.93;29.50;95930.00;4941887;28;20582;-39
2020/12/03 01:56:44;;;;;;;7.95;4.20;;;;;;;25.94;29.42;95930.88;4951353;28;20043;-40
2020/12/03 01:59:09;;;;;;;6.43;3.33;;;;;;;25.94;29.49;95925.63;4950439;28;20050;-39
2020/12/03 02:01:36;;;;;;;6.93;3.70;;;;;;;25.93;29.46;95923.94;4968291;28;20034;-38
2020/12/03 02:04:01;;;;;;;7.47;4.00;;;;;;;25.93;29.62;95919.50;4975397;28;20034;-39
2020/12/03 02:06:30;;;;;;;5.82;3.53;;;;;;;25.92;29.48;95909.97;4977988;28;20046;-41
2020/12/03 02:08:56;;;;;;;6.88;3.65;;;;;;;25.93;29.47;95921.31;4966244;28;20035;-36
2020/12/03 02:11:22;;;;;;;6.05;3.40;;;;;;;25.92;29.45;95914.38;4972022;28;20080;-39
2020/12/03 02:14:02;;;;;;;5.20;3.30;;;;;;;25.92;29.49;95909.09;4966775;28;20139;-38
2020/12/03 02:16:33;;;;;;;7.15;3.90;;;;;;;25.91;29.34;95907.44;4960910;28;20034;-38
2020/12/03 02:18:59;;;;;;;;;;;;;;;25.90;29.49;95900.50;4958889;28;20077;-36
2020/12/03 02:21:24;;;;;;;4.78;3.50;;;;;;;25.87;29.35;95900.72;4954770;28;20279;-38
2020/12/03 02:23:50;;;;;;;5.88;3.80;;;;;;;25.84;29.59;95896.50;4954756;28;20059;-42
2020/12/03 02:26:16;;;;;;;5.18;3.58;;;;;;;25.82;29.44;95901.84;4960868;28;20064;-39
2020/12/03 02:28:41;;;;;;;4.32;3.40;;;;;;;25.82;29.51;95901.84;4959961;28;20058;-37
2020/12/03 02:31:07;;;;;;;7.03;3.70;;;;;;;25.80;29.41;95901.13;4957827;28;20034;-37
2020/12/03 02:33:33;;;;;;;5.05;3.20;;;;;;;25.79;29.61;95888.97;4960650;28;20046;-41
2020/12/03 02:35:58;;;;;;;5.63;3.28;;;;;;;25.81;29.59;95891.47;4959663;28;20529;-38
2020/12/03 02:38:28;;;;;;;5.22;3.33;;;;;;;25.82;29.52;95894.00;4968336;28;20319;-38
2020/12/03 02:40:54;;;;;;;5.22;3.40;;;;;;;25.82;29.69;95895.78;4953525;28;20053;-37
2020/12/03 02:43:20;;;;;;;4.57;3.38;;;;;;;25.83;29.72;95885.16;4954403;28;20048;-40
2020/12/03 02:45:45;;;;;;;5.93;3.38;;;;;;;25.83;29.57;95889.59;4965599;28;20042;-41
2020/12/03 02:48:11;;;;;;;5.88;3.22;;;;;;;25.82;29.52;95886.13;4989046;28;20050;-41
2020/12/03 02:50:37;;;;;;;6.40;3.30;;;;;;;25.83;29.59;95890.41;4959056;28;20042;-38
2020/12/03 02:53:03;;;;;;;5.85;3.53;;;;;;;25.82;29.47;95893.16;4963056;28;20051;-42
2020/12/03 02:55:29;;;;;;;4.80;3.13;;;;;;;25.81;29.37;95887.06;4967770;28;20673;-39
2020/12/03 02:57:55;;;;;;;6.40;3.65;;;;;;;25.81;29.50;95887.06;4960594;28;20050;-40
2020/12/03 03:00:21;;;;;;;7.00;3.25;;;;;;;25.81;29.64;95886.22;4965233;28;20055;-37
2020/12/03 03:02:48;;;;;;;6.10;3.05;;;;;;;25.81;29.64;95892.31;4954462;28;20054;-41
2020/12/03 03:05:13;;;;;;;4.20;3.15;;;;;;;25.82;29.63;95880.03;4960656;28;20346;-39
2020/12/03 03:07:39;;;;;;;5.13;3.35;;;;;;;25.81;29.56;95876.56;4964155;28;20038;-36
2020/12/03 03:10:04;;;;;;;5.53;3.22;;;;;;;25.80;29.50;95872.28;4963221;28;20038;-39
2020/12/03 03:12:30;;;;;;;4.43;2.72;;;;;;;25.80;29.60;95872.28;4964627;28;20105;-40
2020/12/03 03:14:55;;;;;;;4.38;3.13;;;;;;;25.81;29.63;95876.56;4966707;28;20042;-41
2020/12/03 03:17:21;;;;;;;5.57;3.17;;;;;;;25.80;29.54;95872.28;4966116;28;20039;-40
2020/12/03 03:19:47;;;;;;;4.78;3.20;;;;;;;25.82;29.52;95872.16;4965180;28;20092;-38
2020/12/03 03:22:12;;;;;;;5.72;3.13;;;;;;;25.81;29.54;95860.81;4964333;28;20703;-37
2020/12/03 03:24:39;;;;;;;4.05;2.72;;;;;;;25.81;29.62;95866.06;4955927;28;20054;-42
2020/12/03 03:27:04;;;;;;;5.00;3.08;;;;;;;25.81;29.61;95866.06;4959764;28;20051;-40
2020/12/03 03:29:30;;;;;;;4.90;3.13;;;;;;;25.79;29.37;95867.97;4962802;28;20448;-42
2020/12/03 03:31:56;;;;;;;4.25;2.67;;;;;;;25.79;29.50;95867.97;4957160;28;20587;-39
2020/12/03 03:34:22;;;;;;;4.78;3.20;;;;;;;25.80;29.37;95861.78;4958153;28;20351;-40
2020/12/03 03:36:48;;;;;;;3.97;2.92;;;;;;;25.80;29.54;95860.91;4963973;28;20738;-37
2020/12/03 03:39:20;;;;;;;4.82;3.08;;;;;;;25.79;29.50;95856.63;4973091;28;20069;-38
2020/12/03 03:41:46;;;;;;;4.03;2.70;;;;;;;25.79;29.45;95857.47;4961433;28;20042;-41
2020/12/03 03:44:12;;;;;;;4.25;2.85;;;;;;;25.78;29.60;95855.78;4970849;28;20118;-41
2020/12/03 03:46:38;;;;;;;3.75;2.90;;;;;;;25.80;29.39;95848.66;4955751;28;20480;-39
2020/12/03 03:49:03;;;;;;;4.35;3.00;;;;;;;25.80;29.49;95853.91;4953212;28;20702;-38
2020/12/03 03:51:29;;;;;;;3.65;2.65;;;;;;;25.80;29.44;95856.53;4952282;28;20046;-41
2020/12/03 03:53:55;;;;;;;4.63;2.88;;;;;;;25.80;29.39;95856.53;4968663;28;20040;-39
2020/12/03 03:56:21;;;;;;;3.97;2.63;;;;;;;25.79;29.34;95852.22;4962690;28;20368;-41
2020/12/03 03:58:47;;;;;;;4.68;2.90;;;;;;;25.80;29.49;95848.66;4960007;28;20424;-40
2020/12/03 04:01:13;;;;;;;3.83;2.80;;;;;;;25.81;29.34;95855.56;4956047;28;20057;-40
2020/12/03 04:03:38;;;;;;;4.15;2.70;;;;;;;25.81;29.50;95855.56;4968590;28;20047;-38
2020/12/03 04:06:04;;;;;;;2.83;2.45;;;;;;;25.81;29.37;95854.72;4965065;28;20884;-37
2020/12/03 04:08:29;;;;;;;2.63;2.10;;;;;;;25.80;29.42;95842.56;4958514;28;20151;-36
2020/12/03 04:10:55;;;;;;;3.45;2.45;;;;;;;25.80;29.28;95843.41;4953742;28;20046;-39
2020/12/03 04:13:21;;;;;;;4.38;2.70;;;;;;;25.80;29.45;95848.66;4952765;28;20046;-40
2020/12/03 04:15:47;;;;;;;4.50;2.45;;;;;;;25.80;29.44;95843.41;4951686;28;20050;-42
2020/12/03 04:18:12;;;;;;;3.72;2.30;;;;;;;25.81;29.34;95838.97;4945922;28;20074;-38
2020/12/03 04:20:38;;;;;;;4.40;2.50;;;;;;;25.82;29.38;95836.25;4959476;28;20061;-40
2020/12/03 04:23:04;;;;;;;3.03;2.40;;;;;;;25.82;29.41;95838.88;4961486;28;20101;-39
2020/12/03 04:25:30;;;;;;;6.13;2.60;;;;;;;25.82;29.48;95836.25;4953375;28;20073;-40
2020/12/03 04:27:56;;;;;;;4.28;2.70;;;;;;;25.81;29.21;95834.56;4956973;28;20127;-40
2020/12/03 04:30:21;;;;;;;3.35;2.40;;;;;;;25.82;29.44;95831.00;4957942;28;20054;-38
2020/12/03 04:32:47;;;;;;;3.70;2.58;;;;;;;25.81;29.47;95834.56;4970268;28;20041;-41
2020/12/03 04:35:17;;;;;;;2.58;2.17;;;;;;;25.80;29.39;95832.91;4976546;28;20527;-42
2020/12/03 04:37:43;;;;;;;3.17;2.42;;;;;;;25.81;29.43;95828.47;4979833;28;20037;-42
2020/12/03 04:40:10;;;;;;;3.90;2.60;;;;;;;25.81;29.30;95829.31;4981005;28;20046;-39
2020/12/03 04:42:36;;;;;;;2.97;2.45;;;;;;;25.82;29.27;95830.19;4968615;28;20730;-40
2020/12/03 04:45:27;;;;;;;3.28;2.35;;;;;;;25.81;29.33;95823.22;4976920;28;20711;-42
2020/12/03 04:48:23;;;;;;;3.90;2.60;;;;;;;25.80;29.22;95821.56;4961496;28;20121;-42
2020/12/03 04:50:57;;;;;;;3.97;2.47;;;;;;;25.79;29.30;95828.59;4963751;28;20030;-41
2020/12/03 04:53:39;;;;;;;3.55;2.63;;;;;;;25.79;29.30;95825.97;4967653;28;20623;-40
2020/12/03 04:56:13;;;;;;;3.47;2.30;;;;;;;25.79;29.33;95820.72;4990997;28;20054;-42
2020/12/03 04:58:49;;;;;;;2.92;2.40;;;;;;;25.79;29.28;95820.72;4969675;28;20039;-39
2020/12/03 05:01:50;;;;;;;2.97;2.20;;;;;;;25.80;29.21;95821.56;4975138;28;20049;-40
2020/12/03 05:04:25;;;;;;;4.05;2.30;;;;;;;25.78;29.19;95813.78;4967209;28;20097;-40
2020/12/03 05:07:01;;;;;;;3.10;2.30;;;;;;;25.77;29.29;95817.34;4953805;28;20049;-38
2020/12/03 05:09:30;;;;;;;2.85;2.13;;;;;;;25.77;29.44;95812.09;4963402;28;20161;-40
2020/12/03 05:12:04;;;;;;;4.35;2.50;;;;;;;25.78;29.23;95811.16;4974327;28;20047;-38
2020/12/03 05:15:08;;;;;;;4.22;2.20;;;;;;;25.77;29.35;95812.09;4970638;28;20042;-38
2020/12/03 05:17:43;;;;;;;3.58;2.60;;;;;;;25.77;29.22;95812.09;4973316;28;20046;-39
2020/12/03 05:20:48;;;;;;;3.20;2.28;;;;;;;25.78;29.18;95808.53;4970811;28;20034;-39
2020/12/03 05:23:29;;;;;;;2.97;2.30;;;;;;;25.78;29.34;95808.53;4975328;28;20085;-37
2020/12/03 05:25:55;;;;;;;4.25;2.38;;;;;;;25.78;29.38;95808.53;4976223;28;20018;-39
2020/12/03 05:28:21;;;;;;;3.72;2.22;;;;;;;25.77;29.36;95799.00;4979170;28;20034;-41
2020/12/03 05:30:50;;;;;;;4.00;2.47;;;;;;;25.77;29.14;95791.13;4974719;28;20074;-40
2020/12/03 05:33:16;;;;;;;2.40;1.80;;;;;;;25.76;29.20;95786.81;4978872;28;20073;-39
2020/12/03 05:35:42;;;;;;;2.47;2.17;;;;;;;25.76;29.28;95785.97;4981263;28;20551;-37
2020/12/03 05:38:21;;;;;;;2.95;2.17;;;;;;;25.75;29.22;95782.53;4966400;28;20133;-37
2020/12/03 05:40:54;;;;;;;3.80;2.35;;;;;;;25.75;29.21;95777.28;4965998;28;20046;-42
2020/12/03 05:43:20;;;;;;;3.10;2.30;;;;;;;25.75;29.33;95776.44;4969446;28;20037;-42
2020/12/03 05:45:46;;;;;;;3.05;2.22;;;;;;;25.75;29.43;95769.41;4976768;28;20035;-42
2020/12/03 05:48:14;;;;;;;3.72;2.42;;;;;;;25.74;29.21;95765.09;4956743;28;20053;-38
2020/12/03 05:50:40;;;;;;;2.63;2.20;;;;;;;25.74;29.14;95759.84;4952950;28;20034;-37
2020/12/03 05:53:21;;;;;;;2.60;1.95;;;;;;;25.73;29.20;95763.41;4959267;28;20043;-43
2020/12/03 05:55:47;;;;;;;2.80;2.00;;;;;;;25.73;29.33;95757.34;4959707;28;20115;-39
2020/12/03 05:58:27;;;;;;;2.75;2.03;;;;;;;25.72;29.47;95750.38;4959512;28;20290;-41
2020/12/03 06:00:52;;;;;;;3.10;2.10;;;;;;;25.70;29.30;95753.13;4961440;28;20042;-40
2020/12/03 06:03:29;;;;;;;2.90;2.17;;;;;;;25.71;29.32;95762.69;4991528;28;20308;-36
2020/12/03 06:06:05;;;;;;;2.40;1.95;;;;;;;25.70;29.50;95758.38;4963491;28;20047;-41
2020/12/03 06:08:53;;;;;;;2.45;1.98;;;;;;;25.70;29.52;95758.38;4964926;28;20551;-41
2020/12/03 06:11:31;;;;;;;5.07;3.58;;;;;;;25.68;28.29;95757.66;4956058;28;20034;-39
2020/12/03 06:14:47;;;;;;;6.97;3.97;;;;;;;25.64;28.13;95748.31;4951495;28;20042;-37
2020/12/03 06:18:03;;;;;;;2.78;2.10;;;;;;;25.61;29.18;95754.59;4988285;28;20046;-39
2020/12/03 06:20:51;;;;;;;2.38;1.90;;;;;;;25.60;29.41;95741.59;4973840;28;20550;-42
2020/12/03 06:23:55;;;;;;;2.20;2.00;;;;;;;25.59;29.54;95742.53;4977207;28;20030;-43
2020/12/03 06:26:27;;;;;;;5.78;1.90;;;;;;;25.59;29.48;95739.91;4983635;28;20037;-39
2020/12/03 06:29:30;;;;;;;2.67;2.00;;;;;;;25.59;29.54;95737.28;4981242;28;20026;-36
2020/12/03 06:32:29;;;;;;;2.72;1.60;;;;;;;25.60;29.32;95752.09;4971779;28;20076;-41
2020/12/03 06:35:00;;;;;;;2.40;1.92;;;;;;;25.56;29.31;95740.97;4971468;28;20073;-41
2020/12/03 06:37:33;;;;;;;3.10;2.20;;;;;;;25.60;29.48;95747.69;4952479;28;20057;-43
2020/12/03 06:40:02;;;;;;;2.13;1.83;;;;;;;25.60;29.33;95741.59;4957044;28;20519;-40
2020/12/03 06:42:41;;;;;;;2.50;1.90;;;;;;;25.62;29.42;95744.97;4963469;28;20133;-42
2020/12/03 06:45:09;;;;;;;1.92;1.60;;;;;;;25.62;29.38;95737.09;4971217;28;20053;-38
2020/12/03 06:47:40;;;;;;;2.70;1.90;;;;;;;25.59;29.59;95735.50;4981355;28;20036;-38
2020/12/03 06:50:38;;;;;;;3.15;1.83;;;;;;;25.62;29.42;95739.72;4969043;28;20042;-37
2020/12/03 06:53:30;;;;;;;4.25;2.00;;;;;;;25.61;29.48;95738.00;4978212;28;20639;-40
2020/12/03 06:56:17;;;;;;;2.05;1.75;;;;;;;25.60;29.57;95737.19;5010476;28;20034;-38
2020/12/03 06:58:54;;;;;;;2.20;1.70;;;;;;;25.61;29.51;95732.75;4981275;28;20108;-40
2020/12/03 07:01:29;;;;;;;2.92;1.42;;;;;;;25.60;29.54;95738.97;4970374;28;20069;-38
2020/12/03 07:04:09;;;;;;;3.67;1.75;;;;;;;25.59;29.48;95732.88;4971982;28;20034;-42
2020/12/03 07:06:54;;;;;;;3.20;1.85;;;;;;;25.60;29.33;95720.59;4975082;28;20038;-41
2020/12/03 07:09:57;;;;;;;4.75;2.00;;;;;;;25.59;29.36;95718.94;4980183;28;20044;-39
2020/12/03 07:12:41;;;;;;;7.93;2.10;;;;;;;25.56;29.34;95720.81;4973473;28;20307;-40
2020/12/03 07:15:40;;;;;;;14.75;2.15;;;;;;;25.52;29.26;95719.31;4978690;28;20085;-40
2020/12/03 07:18:24;;;;;;;2.85;1.92;;;;;;;25.49;29.71;95729.19;4981003;28;20065;-40
2020/12/03 07:21:04;;;;;;;3.85;2.00;;;;;;;25.33;29.43;95698.78;4968808;28;20033;-39
2020/12/03 07:23:50;;;;;;;3.67;1.90;;;;;;;25.43;29.73;95710.31;4972996;28;20030;-37
2020/12/03 07:26:34;;;;;;;1.73;1.60;;;;;;;25.43;29.86;95715.53;4959683;28;20513;-40
2020/12/03 07:28:59;;;;;;;2.80;1.70;;;;;;;25.44;29.99;95716.41;4968955;28;20026;-38
2020/12/03 07:31:31;;;;;;;1.92;1.55;;;;;;;25.42;30.09;95710.41;4970520;28;20054;-42
2020/12/03 07:34:19;;;;;;;3.33;1.80;;;;;;;25.44;30.10;95705.91;4957398;28;20034;-40
2020/12/03 07:36:45;;;;;;;3.15;1.25;;;;;;;25.46;30.09;95714.50;4972231;28;20086;-41
2020/12/03 07:39:15;;;;;;;1.67;1.50;;;;;;;25.48;30.07;95712.63;4998791;28;20619;-37
2020/12/03 07:41:50;;;;;;;2.15;1.38;;;;;;;25.47;30.07;95705.66;4956345;28;20247;-41
2020/12/03 07:44:53;;;;;;;3.53;1.45;;;;;;;25.50;29.93;95705.47;4974223;28;20640;-41
2020/12/03 07:47:23;;;;;;;2.08;1.33;;;;;;;25.50;30.00;95704.63;4979299;28;20113;-41
2020/12/03 07:49:50;;;;;;;2.25;1.52;;;;;;;25.49;29.98;95698.56;4974349;28;20049;-39
2020/12/03 07:52:34;;;;;;;2.22;1.65;;;;;;;25.46;30.00;95688.25;4970507;28;20042;-39
2020/12/03 07:55:22;;;;;;;2.30;1.38;;;;;;;25.47;30.25;95687.31;4971222;28;20724;-39
2020/12/03 07:57:59;;;;;;;3.17;1.60;;;;;;;25.46;30.35;95683.03;4967335;28;20038;-40
2020/12/03 08:00:47;;;;;;;2.95;1.60;;;;;;;25.45;30.33;95681.34;4967637;28;20908;-41
2020/12/03 08:03:35;;;;;;;3.35;1.80;;;;;;;25.44;30.20;95684.94;4969864;28;20081;-37
2020/12/03 08:06:18;;;;;;;2.30;1.88;;;;;;;25.44;29.49;95679.69;4967621;28;20053;-40
2020/12/03 08:08:51;;;;;;;2.75;1.40;;;;;;;25.47;29.85;95674.19;4968700;28;20144;-41
2020/12/03 08:11:38;;;;;;;2.45;1.55;;;;;;;25.50;30.00;95674.00;4975102;28;20046;-36
2020/12/03 08:14:05;;;;;;;1.48;1.38;;;;;;;25.52;30.05;95676.50;4971777;28;20046;-40
2020/12/03 08:16:39;;;;;;;3.40;1.58;;;;;;;25.53;29.95;95665.06;4969675;28;20116;-40
2020/12/03 08:19:24;;;;;;;2.85;1.52;;;;;;;25.54;30.02;95658.88;4970849;28;20029;-40
2020/12/03 08:21:50;;;;;;;3.35;1.40;;;;;;;25.53;30.16;95655.44;4955298;28;20046;-38
2020/12/03 08:24:23;;;;;;;2.03;1.50;;;;;;;25.54;30.04;95657.09;4966905;28;20034;-39
2020/12/03 08:26:50;;;;;;;1.90;1.27;;;;;;;25.55;30.13;95653.53;4971992;28;20108;-37
2020/12/03 08:29:38;;;;;;;1.60;1.38;;;;;;;25.53;30.23;95659.81;4969293;28;20034;-40
2020/12/03 08:32:04;;;;;;;1.40;1.30;;;;;;;25.54;30.23;95657.09;4968907;28;20050;-39
2020/12/03 08:34:33;;;;;;;1.33;1.17;;;;;;;25.54;30.14;95659.72;4971127;28;20034;-37
2020/12/03 08:36:59;;;;;;;2.60;1.83;;;;;;;25.53;30.07;95644.94;4971192;28;20042;-40
2020/12/03 08:39:25;;;;;;;1.73;1.30;;;;;;;25.54;30.05;95648.38;4969148;28;20120;-41
2020/12/03 08:41:51;;;;;;;3.53;1.60;;;;;;;25.53;30.05;95652.81;4970398;28;20073;-39
2020/12/03 08:44:17;;;;;;;5.45;2.33;;;;;;;25.50;26.78;95641.66;4973345;28;20042;-41
2020/12/03 08:46:42;;;;;;;11.32;9.90;;;;;;;25.27;18.53;95631.00;4975907;28;20093;-38
2020/12/03 08:49:19;;;;;;;13.10;10.82;;;;;;;24.67;17.54;95634.09;4972163;28;20048;-39
2020/12/03 08:51:52;;;;;;;13.65;11.68;;;;;;;23.92;17.59;95628.44;4982708;28;20030;-37
2020/12/03 08:54:27;;;;;;;13.57;10.30;;;;;;;23.26;19.66;95609.84;4972590;28;20035;-38
2020/12/03 08:56:55;;;;;;;9.95;8.68;;;;;;;23.03;21.03;95609.47;4969330;28;20042;-38
2020/12/03 08:59:21;;;;;;;10.45;8.10;;;;;;;22.97;22.71;95603.69;4967904;28;20053;-40
2020/12/03 09:02:00;;;;;;;9.00;7.20;;;;;;;23.01;23.38;95596.50;4950318;28;20405;-40
2020/12/03 09:04:25;;;;;;;10.57;6.07;;;;;;;23.07;24.45;95600.53;4951186;28;20023;-39
2020/12/03 09:06:52;;;;;;;14.27;5.97;;;;;;;23.10;24.91;95582.00;4951326;28;20539;-39
2020/12/03 09:09:22;;;;;;;7.85;5.60;;;;;;;23.00;25.79;95578.31;4950490;28;20063;-43
2020/12/03 09:11:48;;;;;;;7.88;5.95;;;;;;;22.90;26.48;95576.25;4957485;28;20791;-43
2020/12/03 09:14:13;;;;;;;7.40;5.28;;;;;;;22.86;26.91;95579.97;4953149;28;20051;-45
2020/12/03 09:16:40;;;;;;;10.82;5.03;;;;;;;22.87;27.63;95573.81;4958407;28;20117;-45
2020/12/03 09:19:06;;;;;;;8.10;4.75;;;;;;;22.95;28.04;95571.56;4983827;28;20046;-44
2020/12/03 09:21:31;;;;;;;5.78;4.20;;;;;;;23.18;28.04;95574.56;4985267;28;20051;-44
2020/12/03 09:23:58;;;;;;;5.53;4.20;;;;;;;23.43;28.08;95582.69;4936866;28;20043;-44
2020/12/03 09:26:31;;;;;;;6.00;4.30;;;;;;;23.67;27.97;95569.81;4962213;28;20701;-46
2020/12/03 09:28:57;;;;;;;9.20;4.32;;;;;;;23.92;27.59;95562.16;4957067;28;21074;-43
2020/12/03 09:31:24;;;;;;;9.23;4.60;;;;;;;24.11;27.87;95554.00;4952900;28;20035;-44
2020/12/03 09:33:50;;;;;;;11.40;5.00;;;;;;;24.26;27.63;95560.81;4947201;28;20224;-43
2020/12/03 09:36:16;;;;;;;21.52;5.63;;;;;;;24.42;27.76;95551.09;4947339;28;20050;-38
2020/12/03 09:38:42;;;;;;;14.43;5.88;;;;;;;24.57;27.53;95557.09;4952707;28;20042;-42
2020/12/03 09:41:08;;;;;;;17.58;6.20;;;;;;;24.69;27.54;95553.66;4949087;28;20050;-45
2020/12/03 09:43:34;;;;;;;12.07;5.22;;;;;;;24.81;27.47;95551.97;4949346;28;20122;-41
2020/12/03 09:46:00;;;;;;;15.38;5.53;;;;;;;24.91;27.24;95546.97;4946116;28;20678;-44
2020/12/03 09:48:26;;;;;;;10.70;4.88;;;;;;;25.01;27.21;95542.75;4925332;28;20043;-43
2020/12/03 09:50:52;;;;;;;12.82;5.20;;;;;;;25.11;27.35;95542.94;4948449;28;20078;-44
2020/12/03 09:53:19;;;;;;;16.13;4.95;;;;;;;25.20;27.29;95546.69;4941617;28;20177;-38
2020/12/03 09:55:45;;;;;;;13.85;5.20;;;;;;;25.28;26.75;95536.50;4951934;28;20061;-43
2020/12/03 09:58:10;;;;;;;10.38;4.47;;;;;;;25.37;27.10;95536.81;4948519;28;20035;-43
2020/12/03 10:00:39;;;;;;;13.15;5.20;;;;;;;25.43;27.17;95525.88;4953033;28;20046;-42
2020/12/03 10:03:32;;;;;;;16.13;5.18;;;;;;;25.49;27.02;95520.19;4952154;28;20042;-44
2020/12/03 10:06:26;;;;;;;13.40;4.90;;;;;;;25.55;27.11;95516.28;4951914;28;20086;-43
2020/12/03 10:09:15;;;;;;;10.27;4.32;;;;;;;25.61;27.16;95507.16;4947997;28;20039;-42
2020/12/03 10:11:52;;;;;;;10.75;4.30;;;;;;;25.65;27.16;95498.13;4944152;28;20124;-41
2020/12/03 10:14:20;;;;;;;7.80;4.47;;;;;;;25.68;27.21;95505.78;4932904;28;20027;-44
2020/12/03 10:16:46;;;;;;;11.95;4.68;;;;;;;25.71;27.44;95492.44;4949221;28;20047;-45
2020/12/03 10:19:12;;;;;;;8.27;4.35;;;;;;;25.73;27.43;95482.66;4946179;28;20049;-44
2020/12/03 10:21:52;;;;;;;7.70;3.92;;;;;;;25.77;27.25;95481.47;4948971;28;20046;-41
2020/12/03 10:24:34;;;;;;;7.68;4.18;;;;;;;25.82;27.21;95475.91;4943851;28;20098;-44
2020/12/03 10:27:06;;;;;;;8.63;4.20;;;;;;;25.87;27.27;95472.91;4948147;28;20058;-42
2020/12/03 10:29:32;;;;;;;9.40;4.10;;;;;;;25.91;27.19;95471.75;4950219;28;20110;-41
2020/12/03 10:31:58;;;;;;;8.65;3.80;;;;;;;25.95;26.95;95470.56;4944065;28;20047;-43
2020/12/03 10:34:25;;;;;;;12.10;4.15;;;;;;;26.02;26.97;95458.66;4951687;28;20047;-40
2020/12/03 10:36:52;;;;;;;7.50;3.75;;;;;;;26.10;26.94;95450.19;4951508;28;20086;-41
2020/12/03 10:39:18;;;;;;;8.70;3.65;;;;;;;26.19;26.64;95446.03;4950458;28;20074;-42
2020/12/03 10:41:46;;;;;;;9.55;4.13;;;;;;;26.29;26.69;95449.66;4947408;28;20039;-43
2020/12/03 10:44:15;;;;;;;9.02;3.75;;;;;;;26.40;26.41;95450.63;4952875;28;20193;-39
2020/12/03 10:46:45;;;;;;;8.60;3.75;;;;;;;26.45;26.43;95445.84;4931333;28;20338;-43
2020/12/03 10:49:15;;;;;;;8.18;3.30;;;;;;;26.50;26.55;95454.22;4954887;28;20082;-42
2020/12/03 10:51:41;;;;;;;9.13;3.65;;;;;;;26.53;26.59;95453.13;4943356;28;20057;-40
2020/12/03 10:54:06;;;;;;;13.68;4.22;;;;;;;26.56;26.41;95448.50;4947771;28;20046;-43
2020/12/03 10:56:36;;;;;;;7.95;3.75;;;;;;;26.59;26.70;95445.59;4926193;28;20042;-41
2020/12/03 10:59:20;;;;;;;7.15;3.33;;;;;;;26.63;26.46;95453.25;4950035;28;20038;-42
2020/12/03 11:01:50;;;;;;;5.85;3.13;;;;;;;26.65;26.42;95448.75;4951457;28;20043;-45
2020/12/03 11:04:16;;;;;;;5.32;3.20;;;;;;;26.66;26.51;95445.97;4977144;28;20035;-41
2020/12/03 11:06:42;;;;;;;6.35;3.38;;;;;;;26.68;26.55;95432.72;4955006;28;20106;-44
2020/12/03 11:09:07;;;;;;;5.40;3.20;;;;;;;26.69;26.55;95426.53;4959784;28;20050;-41
2020/12/03 11:11:37;;;;;;;7.97;3.40;;;;;;;26.69;26.67;95423.91;4948151;28;20045;-42
2020/12/03 11:14:09;;;;;;;6.35;3.15;;;;;;;26.69;26.68;95416.00;4902333;28;20074;-46
2020/12/03 11:16:34;;;;;;;5.22;2.88;;;;;;;26.69;26.67;95418.63;4903066;28;20121;-46
2020/12/03 11:19:00;;;;;;;6.05;3.15;;;;;;;26.71;26.89;95411.47;4914496;28;20042;-47
2020/12/03 11:21:35;;;;;;;5.47;2.85;;;;;;;26.74;26.93;95411.22;4936791;28;20046;-43
2020/12/03 11:24:09;;;;;;;6.10;3.20;;;;;;;26.77;26.80;95400.44;4945939;28;20038;-44
2020/12/03 11:26:34;;;;;;;6.10;3.28;;;;;;;26.85;26.35;95397.25;4957351;28;20046;-42
2020/12/03 11:29:11;;;;;;;4.40;2.90;;;;;;;26.92;26.39;95394.94;4957766;28;20667;-45
2020/12/03 11:31:36;;;;;;;4.93;2.70;;;;;;;26.98;26.32;95389.22;4959140;28;20053;-44
2020/12/03 11:34:02;;;;;;;6.05;2.67;;;;;;;27.06;26.36;95383.34;4962659;28;20045;-42
2020/12/03 11:36:33;;;;;;;5.28;2.80;;;;;;;27.11;26.18;95360.97;4962738;28;20062;-39
2020/12/03 11:38:58;;;;;;;4.78;2.50;;;;;;;27.16;26.30;95360.63;4948024;28;20133;-44
2020/12/03 11:41:45;;;;;;;4.40;2.88;;;;;;;27.18;26.26;95355.22;4933005;28;20596;-44
2020/12/03 11:49:07;;;;;;;7.25;2.58;;;;;;;27.20;26.42;95346.25;4963217;28;20031;-45
2020/12/03 11:51:37;;;;;;;4.38;2.30;;;;;;;27.21;26.30;95344.44;4955444;28;20097;-43
2020/12/03 11:54:06;;;;;;;4.78;2.72;;;;;;;27.21;26.46;95339.19;4963023;28;20038;-43
2020/12/03 11:56:32;;;;;;;5.57;2.55;;;;;;;27.22;26.50;95330.34;4965298;28;20050;-44